createdAt,value
2017-08-27T00:02:13.787Z,21.88
2017-08-27T00:07:16.330Z,21.87
2017-08-27T00:12:18.941Z,21.82
2017-08-27T00:17:21.527Z,21.79
2017-08-27T00:22:23.499Z,21.80
2017-08-27T00:27:26.082Z,21.81
2017-08-27T00:32:28.802Z,21.72
2017-08-27T00:37:30.798Z,21.66
2017-08-27T00:42:33.117Z,21.61
2017-08-27T00:47:35.121Z,21.63
2017-08-27T00:52:37.407Z,21.52
2017-08-27T00:57:39.963Z,21.40
2017-08-27T01:02:42.480Z,21.40
2017-08-27T01:07:45.249Z,21.27
2017-08-27T01:12:47.560Z,21.30
2017-08-27T01:17:49.737Z,21.26
2017-08-27T01:22:52.349Z,21.19
2017-08-27T01:27:54.692Z,21.12
2017-08-27T01:32:57.361Z,21.00
2017-08-27T01:38:00.020Z,20.91
2017-08-27T01:43:02.524Z,20.93
2017-08-27T01:48:05.061Z,20.83
2017-08-27T01:53:07.626Z,20.77
2017-08-27T01:58:10.031Z,20.71
2017-08-27T02:03:12.468Z,20.71
2017-08-27T02:08:14.969Z,20.65
2017-08-27T02:13:17.342Z,20.69
2017-08-27T02:18:20.299Z,20.73
2017-08-27T02:23:23.074Z,20.63
2017-08-27T02:28:25.158Z,20.64
2017-08-27T02:33:27.517Z,20.60
2017-08-27T02:38:31.021Z,20.45
2017-08-27T02:43:33.205Z,20.40
2017-08-27T02:48:35.559Z,20.41
2017-08-27T02:53:38.090Z,20.25
2017-08-27T02:58:40.560Z,20.23
2017-08-27T03:03:43.010Z,20.18
2017-08-27T03:08:46.795Z,20.14
2017-08-27T03:13:50.976Z,20.11
2017-08-27T03:18:57.361Z,20.04
2017-08-27T03:24:01.725Z,20.03
2017-08-27T03:29:05.694Z,19.97
2017-08-27T03:34:08.304Z,19.96
2017-08-27T03:39:11.988Z,19.86
2017-08-27T03:44:16.395Z,19.82
2017-08-27T03:49:19.136Z,19.71
2017-08-27T03:54:23.163Z,19.63
2017-08-27T03:59:25.709Z,19.63
2017-08-27T04:04:28.171Z,19.51
2017-08-27T04:09:30.668Z,19.58
2017-08-27T04:14:33.035Z,19.50
2017-08-27T04:19:35.536Z,19.47
2017-08-27T04:24:39.155Z,19.44
2017-08-27T04:29:41.543Z,19.40
2017-08-27T04:34:57.382Z,19.28
2017-08-27T04:40:00.488Z,19.25
2017-08-27T04:45:04.862Z,19.33
2017-08-27T04:50:16.953Z,19.39
2017-08-27T04:55:23.224Z,19.41
2017-08-27T05:00:35.669Z,19.48
2017-08-27T05:05:40.976Z,19.47
2017-08-27T05:10:46.438Z,19.58
2017-08-27T05:15:48.810Z,19.82
2017-08-27T05:20:50.980Z,19.89
2017-08-27T05:25:52.928Z,19.81
2017-08-27T05:30:54.983Z,19.95
2017-08-27T05:35:57.069Z,20.22
2017-08-27T05:40:59.066Z,20.40
2017-08-27T05:46:01.471Z,20.50
2017-08-27T05:51:03.519Z,20.47
2017-08-27T05:56:05.760Z,20.43
2017-08-27T06:01:07.871Z,20.52
2017-08-27T06:06:11.582Z,20.47
2017-08-27T06:11:13.699Z,20.47
2017-08-27T06:16:15.790Z,20.81
2017-08-27T06:21:17.779Z,21.03
2017-08-27T06:26:20.300Z,21.07
2017-08-27T06:31:22.286Z,21.04
2017-08-27T06:36:25.052Z,21.60
2017-08-27T06:41:27.382Z,21.45
2017-08-27T06:46:29.367Z,21.73
2017-08-27T06:51:34.074Z,21.43
2017-08-27T06:56:36.199Z,21.03
2017-08-27T07:01:38.218Z,20.99
2017-08-27T07:06:40.200Z,21.09
2017-08-27T07:11:42.182Z,21.09
2017-08-27T07:16:44.121Z,21.30
2017-08-27T07:21:46.096Z,21.67
2017-08-27T07:26:48.078Z,21.71
2017-08-27T07:31:50.011Z,21.70
2017-08-27T07:36:51.931Z,22.32
2017-08-27T07:41:53.869Z,22.39
2017-08-27T07:46:55.810Z,22.20
2017-08-27T07:51:59.496Z,22.41
2017-08-27T07:57:01.590Z,22.68
2017-08-27T08:02:07.664Z,22.72
2017-08-27T08:07:09.768Z,23.08
2017-08-27T08:12:12.037Z,23.19
2017-08-27T08:17:14.556Z,23.49
2017-08-27T08:22:16.692Z,23.44
2017-08-27T08:27:19.158Z,23.30
2017-08-27T08:32:21.456Z,23.84
2017-08-27T08:37:23.764Z,23.60
2017-08-27T08:42:26.150Z,23.53
2017-08-27T08:47:28.406Z,23.76
2017-08-27T08:52:30.731Z,23.80
2017-08-27T08:57:33.100Z,24.04
2017-08-27T09:02:35.087Z,23.87
2017-08-27T09:07:37.075Z,24.07
2017-08-27T09:12:39.200Z,24.14
2017-08-27T09:17:41.309Z,24.26
2017-08-27T09:22:43.307Z,24.39
2017-08-27T09:27:45.292Z,24.36
2017-08-27T09:32:47.247Z,24.48
2017-08-27T09:37:51.605Z,24.58
2017-08-27T09:42:56.718Z,24.80
2017-08-27T09:48:01.942Z,24.77
2017-08-27T09:53:06.802Z,25.15
2017-08-27T09:58:12.490Z,24.98
2017-08-27T10:03:17.699Z,25.23
2017-08-27T10:08:20.085Z,25.51
2017-08-27T10:13:23.271Z,26.16
2017-08-27T10:18:25.607Z,26.44
2017-08-27T10:23:28.079Z,25.63
2017-08-27T10:28:30.340Z,26.22
2017-08-27T10:33:32.594Z,26.36
2017-08-27T10:38:34.599Z,26.22
2017-08-27T10:43:37.224Z,26.61
2017-08-27T10:48:39.263Z,26.90
2017-08-27T10:53:41.310Z,26.71
2017-08-27T10:58:43.279Z,26.83
2017-08-27T11:03:45.512Z,26.88
2017-08-27T11:08:47.716Z,26.33
2017-08-27T11:13:49.759Z,26.26
2017-08-27T11:18:52.184Z,26.88
2017-08-27T11:23:54.126Z,26.55
2017-08-27T11:28:56.045Z,26.55
2017-08-27T11:34:03.740Z,26.90
2017-08-27T11:39:06.240Z,27.44
2017-08-27T11:44:08.824Z,26.87
2017-08-27T11:49:11.725Z,26.38
2017-08-27T11:54:13.903Z,26.93
2017-08-27T11:59:16.124Z,27.44
2017-08-27T12:04:19.545Z,27.57
2017-08-27T12:09:23.600Z,27.48
2017-08-27T12:14:26.041Z,27.64
2017-08-27T12:19:30.520Z,26.98
2017-08-27T12:24:35.100Z,26.62
2017-08-27T12:29:39.728Z,26.67
2017-08-27T12:34:43.711Z,26.85
2017-08-27T12:39:47.781Z,26.67
2017-08-27T12:44:49.908Z,26.50
2017-08-27T12:49:53.799Z,26.79
2017-08-27T12:54:58.064Z,27.37
2017-08-27T13:00:02.630Z,27.26
2017-08-27T13:05:05.932Z,26.57
2017-08-27T13:10:10.217Z,26.38
2017-08-27T13:15:14.455Z,26.87
2017-08-27T13:20:19.167Z,27.61
2017-08-27T13:25:23.211Z,28.17
2017-08-27T13:30:28.541Z,28.76
2017-08-27T13:35:33.041Z,28.83
2017-08-27T13:40:38.115Z,29.02
2017-08-27T13:45:41.401Z,29.00
2017-08-27T13:50:44.256Z,28.87
2017-08-27T13:55:47.147Z,27.98
2017-08-27T14:00:49.986Z,27.53
2017-08-27T14:05:52.803Z,27.36
2017-08-27T14:10:55.658Z,26.89
2017-08-27T14:15:58.492Z,26.70
2017-08-27T14:21:01.284Z,26.48
2017-08-27T14:26:04.420Z,26.49
2017-08-27T14:31:07.279Z,26.49
2017-08-27T14:36:10.248Z,26.36
2017-08-27T14:41:13.052Z,26.66
2017-08-27T14:46:15.785Z,26.81
2017-08-27T14:51:18.851Z,27.16
2017-08-27T14:56:21.644Z,27.27
2017-08-27T15:01:24.391Z,27.26
2017-08-27T15:06:27.173Z,27.75
2017-08-27T15:11:31.019Z,28.80
2017-08-27T15:16:34.323Z,28.92
2017-08-27T15:21:37.141Z,28.48
2017-08-27T15:26:40.047Z,28.65
2017-08-27T15:31:42.898Z,28.67
2017-08-27T15:36:45.740Z,28.53
2017-08-27T15:41:48.726Z,28.41
2017-08-27T15:46:50.771Z,28.68
2017-08-27T15:51:53.104Z,28.96
2017-08-27T15:56:55.436Z,28.91
2017-08-27T16:01:58.093Z,29.39
2017-08-27T16:07:00.319Z,28.74
2017-08-27T16:12:02.716Z,28.35
2017-08-27T16:17:05.109Z,28.23
2017-08-27T16:22:08.381Z,28.48
2017-08-27T16:27:10.874Z,27.56
2017-08-27T16:32:13.271Z,27.65
2017-08-27T16:37:15.519Z,27.44
2017-08-27T16:42:22.085Z,27.26
2017-08-27T16:47:38.154Z,26.93
2017-08-27T16:52:42.434Z,26.67
2017-08-27T16:57:46.047Z,26.64
2017-08-27T17:02:50.277Z,26.40
2017-08-27T17:07:56.209Z,26.10
2017-08-27T17:13:02.464Z,26.03
2017-08-27T17:18:07.840Z,25.73
2017-08-27T17:23:14.687Z,25.74
2017-08-27T17:28:21.326Z,25.60
2017-08-27T17:33:29.988Z,25.43
2017-08-27T17:38:34.406Z,25.45
2017-08-27T17:43:40.546Z,25.34
2017-08-27T17:48:45.218Z,25.04
2017-08-27T17:53:49.125Z,25.01
2017-08-27T17:58:53.374Z,24.94
2017-08-27T18:03:57.516Z,24.84
2017-08-27T18:09:01.518Z,24.72
2017-08-27T18:14:08.206Z,24.60
2017-08-27T18:19:15.210Z,24.51
2017-08-27T18:24:19.559Z,24.38
2017-08-27T18:29:21.691Z,24.22
2017-08-27T18:34:23.726Z,24.04
2017-08-27T18:39:25.706Z,23.84
2017-08-27T18:44:27.738Z,23.62
2017-08-27T18:49:29.805Z,23.41
2017-08-27T18:54:31.852Z,23.07
2017-08-27T18:59:33.836Z,22.90
2017-08-27T19:04:35.935Z,22.64
2017-08-27T19:09:37.990Z,22.65
2017-08-27T19:14:40.299Z,22.42
2017-08-27T19:19:42.925Z,22.20
2017-08-27T19:24:45.978Z,22.23
2017-08-27T19:29:50.025Z,22.27
2017-08-27T19:34:52.011Z,22.15
2017-08-27T19:39:54.369Z,22.05
2017-08-27T19:44:56.786Z,21.99
2017-08-27T19:49:59.234Z,21.90
2017-08-27T19:55:01.516Z,21.83
2017-08-27T20:00:03.828Z,21.69
2017-08-27T20:05:06.066Z,21.60
2017-08-27T20:10:08.739Z,21.24
2017-08-27T20:15:10.845Z,21.00
2017-08-27T20:20:13.748Z,20.91
2017-08-27T20:25:15.818Z,20.77
2017-08-27T20:30:17.811Z,20.61
2017-08-27T20:35:19.765Z,20.52
2017-08-27T20:40:21.702Z,20.58
2017-08-27T20:45:23.657Z,20.66
2017-08-27T20:50:26.504Z,20.59
2017-08-27T20:55:28.525Z,20.56
2017-08-27T21:00:30.487Z,20.51
2017-08-27T21:05:32.462Z,20.29
2017-08-27T21:10:34.542Z,20.29
2017-08-27T21:15:37.280Z,20.15
2017-08-27T21:20:39.639Z,20.08
2017-08-27T21:25:42.111Z,19.71
2017-08-27T21:30:44.510Z,20.00
2017-08-27T21:35:46.860Z,19.97
2017-08-27T21:40:49.140Z,19.82
2017-08-27T21:45:51.658Z,19.79
2017-08-27T21:50:53.689Z,19.80
2017-08-27T21:55:55.756Z,19.76
2017-08-27T22:00:57.836Z,19.68
2017-08-27T22:05:59.858Z,19.55
2017-08-27T22:11:01.992Z,19.36
2017-08-27T22:16:03.959Z,19.27
2017-08-27T22:21:05.959Z,19.23
2017-08-27T22:26:08.116Z,19.15
2017-08-27T22:31:10.210Z,19.26
2017-08-27T22:36:12.541Z,19.30
2017-08-27T22:41:14.538Z,19.26
2017-08-27T22:46:16.723Z,19.29
2017-08-27T22:51:18.815Z,19.19
2017-08-27T22:56:20.982Z,19.12
2017-08-27T23:01:23.484Z,19.10
2017-08-27T23:06:26.056Z,19.05
2017-08-27T23:11:28.763Z,19.01
2017-08-27T23:16:31.244Z,18.97
2017-08-27T23:21:33.618Z,18.82
2017-08-27T23:26:36.251Z,18.81
2017-08-27T23:31:38.873Z,18.74
2017-08-27T23:36:40.891Z,18.76
2017-08-27T23:41:42.867Z,18.65
2017-08-27T23:46:44.794Z,18.55
2017-08-27T23:51:46.744Z,18.55
2017-08-27T23:56:48.696Z,18.46
